createdAt,value
2022-11-16T00:00:29.585Z,23.45
2022-11-16T00:02:59.344Z,22.30
2022-11-16T00:05:28.644Z,23.35
2022-11-16T00:07:57.331Z,23.20
2022-11-16T00:10:27.147Z,23.52
2022-11-16T00:12:55.609Z,23.52
2022-11-16T00:15:24.163Z,23.50
2022-11-16T00:17:52.666Z,22.40
2022-11-16T00:20:21.137Z,23.65
2022-11-16T00:22:49.604Z,23.95
2022-11-16T00:25:18.129Z,23.60
2022-11-16T00:27:47.972Z,23.35
2022-11-16T00:30:17.347Z,23.48
2022-11-16T00:32:45.827Z,22.85
2022-11-16T00:35:14.312Z,22.70
2022-11-16T00:37:42.809Z,23.25
2022-11-16T00:40:13.642Z,24.20
2022-11-16T00:42:42.322Z,22.48
2022-11-16T00:45:12.692Z,24.05
2022-11-16T00:47:41.229Z,23.40
2022-11-16T00:50:10.472Z,23.75
2022-11-16T00:52:38.907Z,22.95
2022-11-16T00:55:08.771Z,24.02
2022-11-16T00:57:37.313Z,22.38
2022-11-16T01:00:06.505Z,22.88
2022-11-16T01:02:36.362Z,22.30
2022-11-16T01:05:05.219Z,22.42
2022-11-16T01:07:33.796Z,22.38
2022-11-16T01:10:02.353Z,21.95
2022-11-16T01:12:29.811Z,21.98
2022-11-16T01:14:58.268Z,22.45
2022-11-16T01:17:26.956Z,23.55
2022-11-16T01:19:56.846Z,22.45
2022-11-16T01:22:25.401Z,22.02
2022-11-16T01:24:53.871Z,22.98
2022-11-16T01:27:22.397Z,22.33
2022-11-16T01:29:50.850Z,21.90
2022-11-16T01:32:19.307Z,22.60
2022-11-16T01:34:47.828Z,22.88
2022-11-16T01:37:17.779Z,23.25
2022-11-16T01:39:46.345Z,21.75
2022-11-16T01:42:18.223Z,23.15
2022-11-16T01:45:06.985Z,22.67
2022-11-16T01:47:35.591Z,21.83
2022-11-16T01:50:10.241Z,21.58
2022-11-16T01:52:44.253Z,22.02
2022-11-16T01:55:13.059Z,21.50
2022-11-16T01:57:44.091Z,21.80
2022-11-16T02:00:14.501Z,23.08
2022-11-16T02:02:43.456Z,21.38
2022-11-16T02:05:12.680Z,22.52
2022-11-16T02:08:39.408Z,22.17
2022-11-16T02:11:30.622Z,22.13
2022-11-16T02:14:12.095Z,22.20
2022-11-16T02:16:46.910Z,21.98
2022-11-16T02:19:34.742Z,22.67
2022-11-16T02:22:08.582Z,22.75
2022-11-16T02:24:44.940Z,22.35
2022-11-16T02:27:48.856Z,22.15
2022-11-16T02:30:19.108Z,21.45
2022-11-16T02:32:51.064Z,22.33
2022-11-16T02:35:26.221Z,22.73
2022-11-16T02:37:56.606Z,21.90
2022-11-16T02:40:25.824Z,23.27
2022-11-16T02:42:58.077Z,22.27
2022-11-16T02:45:30.108Z,21.90
2022-11-16T02:48:06.377Z,23.52
2022-11-16T02:50:34.953Z,22.02
2022-11-16T02:53:03.840Z,21.98
2022-11-16T02:55:33.917Z,21.98
2022-11-16T02:58:02.909Z,22.48
2022-11-16T03:00:36.662Z,22.58
2022-11-16T03:03:13.185Z,22.08
2022-11-16T03:05:45.225Z,22.10
2022-11-16T03:08:21.887Z,22.05
2022-11-16T03:11:10.616Z,23.15
2022-11-16T03:13:39.205Z,23.00
2022-11-16T03:16:14.395Z,22.70
2022-11-16T03:18:42.863Z,22.13
2022-11-16T03:21:17.258Z,23.55
2022-11-16T03:23:46.632Z,22.30
2022-11-16T03:26:16.601Z,22.83
2022-11-16T03:28:51.421Z,23.15
2022-11-16T03:31:23.650Z,22.63
2022-11-16T03:33:56.113Z,23.30
2022-11-16T03:36:26.920Z,24.23
2022-11-16T03:38:55.449Z,23.08
2022-11-16T03:41:24.094Z,22.45
2022-11-16T03:43:52.576Z,24.13
2022-11-16T03:46:22.510Z,23.45
2022-11-16T03:48:56.779Z,22.15
2022-11-16T03:51:25.291Z,22.92
2022-11-16T03:53:53.812Z,22.70
2022-11-16T03:56:22.263Z,23.00
2022-11-16T03:58:51.222Z,22.75
2022-11-16T04:01:21.177Z,23.80
2022-11-16T04:03:49.720Z,23.23
2022-11-16T04:06:35.933Z,22.98
2022-11-16T04:09:21.804Z,23.92
2022-11-16T04:12:08.728Z,22.63
2022-11-16T04:14:54.713Z,22.75
2022-11-16T04:17:43.236Z,23.55
2022-11-16T04:20:30.609Z,22.95
2022-11-16T04:23:20.779Z,23.52
2022-11-16T04:25:49.394Z,22.88
2022-11-16T04:28:17.638Z,22.73
2022-11-16T04:31:06.154Z,23.13
2022-11-16T04:33:53.533Z,23.27
2022-11-16T04:36:39.820Z,23.95
2022-11-16T04:39:08.268Z,24.80
2022-11-16T04:41:59.521Z,23.38
2022-11-16T04:44:48.390Z,22.52
2022-11-16T04:47:15.974Z,23.63
2022-11-16T04:49:46.454Z,25.00
2022-11-16T04:52:15.019Z,22.15
2022-11-16T04:54:43.444Z,22.83
2022-11-16T04:57:11.865Z,26.73
2022-11-16T04:59:40.382Z,29.08
2022-11-16T05:02:11.802Z,25.60
2022-11-16T05:04:41.584Z,25.55
2022-11-16T05:07:12.757Z,24.10
2022-11-16T05:09:43.129Z,30.45
2022-11-16T05:12:11.943Z,37.42
2022-11-16T05:14:40.411Z,35.10
2022-11-16T05:17:08.982Z,32.47
2022-11-16T05:19:55.206Z,30.02
2022-11-16T05:22:25.220Z,31.00
2022-11-16T05:24:53.838Z,30.98
2022-11-16T05:27:23.078Z,30.13
2022-11-16T05:29:51.597Z,28.38
2022-11-16T05:32:20.884Z,28.40
2022-11-16T05:34:49.452Z,26.35
2022-11-16T05:37:18.321Z,26.55
2022-11-16T05:39:48.309Z,27.80
2022-11-16T05:42:17.094Z,25.13
2022-11-16T05:44:45.543Z,24.88
2022-11-16T05:47:14.030Z,25.90
2022-11-16T05:49:42.546Z,25.27
2022-11-16T05:52:10.996Z,24.98
2022-11-16T05:54:39.461Z,23.52
2022-11-16T05:57:09.284Z,23.95
2022-11-16T05:59:37.729Z,23.33
2022-11-16T06:02:06.210Z,24.38
2022-11-16T06:04:34.633Z,23.67
2022-11-16T06:10:08.750Z,23.20
2022-11-16T06:12:38.597Z,22.35
2022-11-16T06:15:08.168Z,23.23
2022-11-16T06:17:36.640Z,22.08
2022-11-16T06:20:06.073Z,23.17
2022-11-16T06:22:34.620Z,23.27
2022-11-16T06:25:03.228Z,22.58
2022-11-16T06:27:31.696Z,22.48
2022-11-16T06:30:02.009Z,21.63
2022-11-16T06:32:30.600Z,22.30
2022-11-16T06:34:59.511Z,22.35
2022-11-16T06:37:28.332Z,21.48
2022-11-16T06:39:57.234Z,21.48
2022-11-16T06:42:26.065Z,20.42
2022-11-16T06:44:55.141Z,22.00
2022-11-16T06:47:25.311Z,22.17
2022-11-16T06:49:54.202Z,22.10
2022-11-16T06:52:22.941Z,21.73
2022-11-16T06:54:51.999Z,20.98
2022-11-16T06:57:20.739Z,21.50
2022-11-16T06:59:49.503Z,21.05
2022-11-16T07:02:21.359Z,20.50
2022-11-16T07:04:51.502Z,21.83
2022-11-16T07:07:20.432Z,21.33
2022-11-16T07:09:49.181Z,21.80
2022-11-16T07:12:17.988Z,22.05
2022-11-16T07:14:46.738Z,21.70
2022-11-16T07:17:15.739Z,22.27
2022-11-16T07:19:44.585Z,21.20
2022-11-16T07:22:14.881Z,22.38
2022-11-16T07:24:43.586Z,23.08
2022-11-16T07:27:12.758Z,23.13
2022-11-16T07:29:41.524Z,20.60
2022-11-16T07:32:10.311Z,22.20
2022-11-16T07:34:39.477Z,22.25
2022-11-16T07:37:08.243Z,22.80
2022-11-16T07:39:38.538Z,22.17
2022-11-16T07:42:11.588Z,23.08
2022-11-16T07:44:40.453Z,22.38
2022-11-16T07:47:09.345Z,22.20
2022-11-16T07:49:38.210Z,21.92
2022-11-16T07:52:09.097Z,21.83
2022-11-16T07:54:39.280Z,21.75
2022-11-16T07:57:08.259Z,22.58
2022-11-16T07:59:38.248Z,21.65
2022-11-16T08:02:07.148Z,21.35
2022-11-16T08:04:35.956Z,22.30
2022-11-16T08:07:04.773Z,22.40
2022-11-16T08:09:34.587Z,21.30
2022-11-16T08:12:04.533Z,21.92
2022-11-16T08:14:33.156Z,20.52
2022-11-16T08:17:03.717Z,21.08
2022-11-16T08:19:32.257Z,19.63
2022-11-16T08:22:01.406Z,21.95
2022-11-16T08:24:30.064Z,21.08
2022-11-16T08:26:59.464Z,20.42
2022-11-16T08:29:29.648Z,21.23
2022-11-16T08:31:58.124Z,20.52
2022-11-16T08:34:26.662Z,20.20
2022-11-16T08:36:55.236Z,21.50
2022-11-16T08:39:23.722Z,21.40
2022-11-16T08:41:55.287Z,21.45
2022-11-16T08:44:24.520Z,20.90
2022-11-16T08:46:54.532Z,20.15
2022-11-16T08:49:23.426Z,21.02
2022-11-16T08:51:51.919Z,20.85
2022-11-16T08:54:20.517Z,20.55
2022-11-16T08:56:49.009Z,19.85
2022-11-16T08:59:17.692Z,20.23
2022-11-16T09:01:46.446Z,20.02
2022-11-16T09:04:16.551Z,21.10
2022-11-16T09:06:45.173Z,21.10
2022-11-16T09:09:13.769Z,20.45
2022-11-16T09:11:42.339Z,19.88
2022-11-16T09:14:10.879Z,20.58
2022-11-16T09:16:39.432Z,19.25
2022-11-16T09:19:08.009Z,19.67
2022-11-16T09:21:37.892Z,19.95
2022-11-16T09:24:09.154Z,20.38
2022-11-16T09:26:37.765Z,19.63
2022-11-16T09:29:06.359Z,18.83
2022-11-16T09:31:37.362Z,21.05
2022-11-16T09:34:06.454Z,19.88
2022-11-16T09:36:35.134Z,19.90
2022-11-16T09:42:01.985Z,18.88
2022-11-16T09:44:59.576Z,19.48
2022-11-16T09:47:50.185Z,19.70
2022-11-16T09:50:35.893Z,20.40
2022-11-16T09:53:20.102Z,20.40
2022-11-16T09:55:51.318Z,19.50
2022-11-16T09:58:24.443Z,19.52
2022-11-16T10:00:58.289Z,21.15
2022-11-16T10:03:27.465Z,21.42
2022-11-16T10:06:02.924Z,19.05
2022-11-16T10:08:43.204Z,18.92
2022-11-16T10:11:50.957Z,19.60
2022-11-16T10:14:49.445Z,20.05
2022-11-16T10:17:25.921Z,20.58
2022-11-16T10:19:56.072Z,19.13
2022-11-16T10:22:41.020Z,19.23
2022-11-16T10:25:16.111Z,19.65
2022-11-16T10:28:11.349Z,20.27
2022-11-16T10:30:43.596Z,19.70
2022-11-16T10:33:14.474Z,19.30
2022-11-16T10:35:46.011Z,19.80
2022-11-16T10:38:17.322Z,20.75
2022-11-16T10:40:48.784Z,19.75
2022-11-16T10:43:19.749Z,20.38
2022-11-16T10:45:51.789Z,19.88
2022-11-16T10:48:31.077Z,20.02
2022-11-16T10:50:59.608Z,19.92
2022-11-16T10:53:29.732Z,20.30
2022-11-16T10:56:12.865Z,20.23
2022-11-16T10:58:54.371Z,19.33
2022-11-16T11:01:51.088Z,20.23
2022-11-16T11:04:22.930Z,20.15
2022-11-16T11:06:53.006Z,19.35
2022-11-16T11:09:27.940Z,20.75
2022-11-16T11:12:23.255Z,19.63
2022-11-16T11:15:05.986Z,20.17
2022-11-16T11:17:35.841Z,19.92
2022-11-16T11:20:06.303Z,20.20
2022-11-16T11:22:35.038Z,19.48
2022-11-16T11:25:04.449Z,20.75
2022-11-16T11:27:35.146Z,20.70
2022-11-16T11:30:06.014Z,20.13
2022-11-16T11:32:35.851Z,20.33
2022-11-16T11:35:06.576Z,19.42
2022-11-16T11:37:37.194Z,19.20
2022-11-16T11:40:22.575Z,20.67
2022-11-16T11:43:05.289Z,20.10
2022-11-16T11:45:43.385Z,21.05
2022-11-16T11:48:26.308Z,21.02
2022-11-16T11:50:56.578Z,21.73
2022-11-16T11:53:49.542Z,21.83
2022-11-16T11:56:18.312Z,21.60
2022-11-16T11:58:47.207Z,20.63
2022-11-16T12:01:51.911Z,21.17
2022-11-16T12:05:12.803Z,21.08
2022-11-16T12:07:54.935Z,22.85
2022-11-16T12:10:29.752Z,19.83
2022-11-16T12:13:09.724Z,19.95
2022-11-16T12:15:51.540Z,19.85
2022-11-16T12:18:37.264Z,19.80
2022-11-16T12:21:11.133Z,20.55
2022-11-16T12:24:04.716Z,18.63
2022-11-16T12:26:41.291Z,19.02
2022-11-16T12:29:26.883Z,19.05
2022-11-16T12:32:32.273Z,17.92
2022-11-16T12:35:26.783Z,18.23
2022-11-16T12:38:00.558Z,18.05
2022-11-16T12:40:37.343Z,18.73
2022-11-16T12:43:13.299Z,18.33
2022-11-16T12:46:11.428Z,17.83
2022-11-16T12:49:15.647Z,17.42
2022-11-16T12:51:56.836Z,16.70
2022-11-16T12:55:03.995Z,16.02
2022-11-16T12:57:37.320Z,16.25
2022-11-16T13:00:08.732Z,17.48
2022-11-16T13:03:13.351Z,16.45
2022-11-16T13:05:50.228Z,16.33
2022-11-16T13:08:39.662Z,15.82
2022-11-16T13:11:13.123Z,16.55
2022-11-16T13:13:41.950Z,16.42
2022-11-16T13:16:10.934Z,15.93
2022-11-16T13:18:42.735Z,15.60
2022-11-16T13:21:20.017Z,15.05
2022-11-16T13:23:57.208Z,14.65
2022-11-16T13:26:30.205Z,15.60
2022-11-16T13:29:02.402Z,15.65
2022-11-16T13:31:34.630Z,14.82
2022-11-16T13:34:07.045Z,15.23
2022-11-16T13:36:46.412Z,14.77
2022-11-16T13:39:22.359Z,15.35
2022-11-16T13:41:52.122Z,14.05
2022-11-16T13:44:29.981Z,15.25
2022-11-16T13:47:04.452Z,14.18
2022-11-16T13:49:38.743Z,14.32
2022-11-16T13:52:22.739Z,13.98
2022-11-16T13:54:55.648Z,14.18
2022-11-16T13:57:28.183Z,14.80
2022-11-16T14:00:10.186Z,13.63
2022-11-16T14:02:39.515Z,14.15
2022-11-16T14:05:15.997Z,14.50
2022-11-16T14:07:47.191Z,14.25
2022-11-16T14:11:01.099Z,14.05
2022-11-16T14:13:39.817Z,12.63
2022-11-16T14:16:47.718Z,13.63
2022-11-16T14:19:57.029Z,12.95
2022-11-16T14:22:56.620Z,13.77
2022-11-16T14:25:34.804Z,13.48
2022-11-16T14:28:32.431Z,13.10
2022-11-16T14:31:09.057Z,13.93
2022-11-16T14:33:38.294Z,13.63
2022-11-16T14:36:09.309Z,13.20
2022-11-16T14:38:39.319Z,13.00
2022-11-16T14:41:12.512Z,14.57
2022-11-16T14:43:44.701Z,13.65
2022-11-16T14:46:23.348Z,13.52
2022-11-16T14:48:51.807Z,13.13
2022-11-16T14:51:22.656Z,13.20
2022-11-16T14:53:53.609Z,13.45
2022-11-16T14:56:24.614Z,14.20
2022-11-16T14:58:55.462Z,13.55
2022-11-16T15:01:26.087Z,14.57
2022-11-16T15:04:02.357Z,14.02
2022-11-16T15:06:32.268Z,13.70
2022-11-16T15:09:03.217Z,12.93
2022-11-16T15:11:47.299Z,13.77
2022-11-16T15:14:22.615Z,13.55
2022-11-16T15:16:54.650Z,13.32
2022-11-16T15:19:23.314Z,13.10
2022-11-16T15:21:54.023Z,13.95
2022-11-16T15:24:31.506Z,13.10
2022-11-16T15:27:23.327Z,13.32
2022-11-16T15:29:53.247Z,13.27
2022-11-16T15:32:21.831Z,12.73
2022-11-16T15:34:54.348Z,12.90
2022-11-16T15:37:29.652Z,12.40
2022-11-16T15:39:59.375Z,12.07
2022-11-16T15:42:28.178Z,12.13
2022-11-16T15:45:12.873Z,12.23
2022-11-16T15:47:44.146Z,11.95
2022-11-16T15:50:17.036Z,12.18
2022-11-16T15:52:46.549Z,11.98
2022-11-16T15:55:27.878Z,11.95
2022-11-16T15:58:12.525Z,11.98
2022-11-16T16:00:43.099Z,12.35
2022-11-16T16:03:23.057Z,12.20
2022-11-16T16:05:51.954Z,11.30
2022-11-16T16:08:30.281Z,11.95
2022-11-16T16:11:12.238Z,12.05
2022-11-16T16:13:42.642Z,12.02
2022-11-16T16:16:31.521Z,12.07
2022-11-16T16:19:06.463Z,17.20
2022-11-16T16:21:45.231Z,18.00
2022-11-16T16:24:42.919Z,18.45
2022-11-16T16:27:17.330Z,19.33
2022-11-16T16:29:46.269Z,19.05
2022-11-16T16:32:34.489Z,18.10
2022-11-16T16:35:06.504Z,15.40
2022-11-16T16:37:36.084Z,15.73
2022-11-16T16:40:07.968Z,14.48
2022-11-16T16:42:36.488Z,14.80
2022-11-16T16:45:05.688Z,14.38
2022-11-16T16:47:34.214Z,15.48
2022-11-16T16:50:02.699Z,13.85
2022-11-16T16:52:31.177Z,13.20
2022-11-16T16:54:59.693Z,13.68
2022-11-16T16:57:29.928Z,13.35
2022-11-16T16:59:58.471Z,13.05
2022-11-16T17:02:27.691Z,13.38
2022-11-16T17:04:56.244Z,12.00
2022-11-16T17:07:25.207Z,12.30
2022-11-16T17:09:54.319Z,12.00
2022-11-16T17:12:22.801Z,13.13
2022-11-16T17:14:52.589Z,12.60
2022-11-16T17:17:21.411Z,12.02
2022-11-16T17:19:49.924Z,12.35
2022-11-16T17:22:18.477Z,12.00
2022-11-16T17:24:47.152Z,12.95
2022-11-16T17:27:15.656Z,11.68
2022-11-16T17:29:44.277Z,12.57
2022-11-16T17:32:14.256Z,11.98
2022-11-16T17:34:42.941Z,12.30
2022-11-16T17:37:11.513Z,12.00
2022-11-16T17:39:40.184Z,12.30
2022-11-16T17:42:08.612Z,12.05
2022-11-16T17:44:37.213Z,11.63
2022-11-16T17:47:06.645Z,12.07
2022-11-16T17:49:36.675Z,11.43
2022-11-16T17:52:06.270Z,10.85
2022-11-16T17:54:34.748Z,11.70
2022-11-16T17:57:03.224Z,11.65
2022-11-16T17:59:31.785Z,11.27
2022-11-16T18:02:00.202Z,11.27
2022-11-16T18:04:28.659Z,11.20
2022-11-16T18:06:59.800Z,11.52
2022-11-16T18:09:28.309Z,11.30
2022-11-16T18:11:56.738Z,11.35
2022-11-16T18:14:28.126Z,11.27
2022-11-16T18:16:56.867Z,10.82
2022-11-16T18:19:25.410Z,11.32
2022-11-16T18:21:54.068Z,11.30
2022-11-16T18:24:24.089Z,10.60
2022-11-16T18:26:54.481Z,10.48
2022-11-16T18:29:23.050Z,10.70
2022-11-16T18:31:51.634Z,10.43
2022-11-16T18:34:20.436Z,10.43
2022-11-16T18:36:50.995Z,10.05
2022-11-16T18:39:19.525Z,10.38
2022-11-16T18:41:55.069Z,10.23
2022-11-16T18:44:24.036Z,9.68
2022-11-16T18:46:52.597Z,9.73
2022-11-16T18:49:21.140Z,9.02
2022-11-16T18:51:49.645Z,9.57
2022-11-16T18:54:18.224Z,10.10
2022-11-16T18:56:46.917Z,9.80
2022-11-16T18:59:16.829Z,8.90
2022-11-16T19:01:47.464Z,9.57
2022-11-16T19:04:16.374Z,9.70
2022-11-16T19:06:45.060Z,8.75
2022-11-16T19:09:13.711Z,8.52
2022-11-16T19:11:42.342Z,9.50
2022-11-16T19:14:10.976Z,8.75
2022-11-16T19:16:48.978Z,8.68
2022-11-16T19:19:19.831Z,8.98
2022-11-16T19:21:48.350Z,9.40
2022-11-16T19:24:16.821Z,8.93
2022-11-16T19:26:45.375Z,8.55
2022-11-16T19:29:13.857Z,9.20
2022-11-16T19:31:43.844Z,8.93
2022-11-16T19:34:13.145Z,8.40
2022-11-16T19:36:41.849Z,9.07
2022-11-16T19:39:10.562Z,8.43
2022-11-16T19:41:39.207Z,9.18
2022-11-16T19:44:07.682Z,8.10
2022-11-16T19:46:36.658Z,8.20
2022-11-16T19:49:08.736Z,8.40
2022-11-16T19:51:37.755Z,8.90
2022-11-16T19:54:06.919Z,9.63
2022-11-16T19:56:35.608Z,8.88
2022-11-16T19:59:04.252Z,8.60
2022-11-16T20:01:32.850Z,8.48
2022-11-16T20:04:03.517Z,8.73
2022-11-16T20:06:34.347Z,8.05
2022-11-16T20:09:08.743Z,8.82
2022-11-16T20:11:38.786Z,8.02
2022-11-16T20:14:08.713Z,8.65
2022-11-16T20:16:39.517Z,8.57
2022-11-16T20:19:08.337Z,8.38
2022-11-16T20:21:39.530Z,7.47
2022-11-16T20:24:09.736Z,8.52
2022-11-16T20:26:41.431Z,8.73
2022-11-16T20:29:12.089Z,8.73
2022-11-16T20:31:42.990Z,8.07
2022-11-16T20:34:14.050Z,8.18
2022-11-16T20:36:46.342Z,8.00
2022-11-16T20:39:15.763Z,8.23
2022-11-16T20:41:44.929Z,8.05
2022-11-16T20:44:17.917Z,8.30
2022-11-16T20:46:46.418Z,7.40
2022-11-16T20:49:14.985Z,7.82
2022-11-16T20:51:46.897Z,7.75
2022-11-16T20:54:15.465Z,8.30
2022-11-16T20:56:44.541Z,8.05
2022-11-16T20:59:13.129Z,8.00
2022-11-16T21:01:47.516Z,8.18
2022-11-16T21:04:16.749Z,7.57
2022-11-16T21:06:46.809Z,7.40
2022-11-16T21:09:22.459Z,7.50
2022-11-16T21:12:08.664Z,7.55
2022-11-16T21:14:37.134Z,7.03
2022-11-16T21:17:06.345Z,7.20
2022-11-16T21:19:35.154Z,7.13
2022-11-16T21:22:05.000Z,6.78
2022-11-16T21:24:34.917Z,6.82
2022-11-16T21:27:03.340Z,7.35
2022-11-16T21:29:31.995Z,7.72
2022-11-16T21:32:00.561Z,6.90
2022-11-16T21:34:34.607Z,6.70
2022-11-16T21:37:07.117Z,6.72
2022-11-16T21:39:35.735Z,6.55
2022-11-16T21:42:04.369Z,6.45
2022-11-16T21:44:42.107Z,6.90
2022-11-16T21:47:10.695Z,6.80
2022-11-16T21:50:00.818Z,6.60
2022-11-16T21:52:29.983Z,6.28
2022-11-16T21:55:01.585Z,6.47
2022-11-16T21:57:31.755Z,6.22
2022-11-16T22:00:01.104Z,6.45
2022-11-16T22:02:29.719Z,5.80
2022-11-16T22:05:16.038Z,6.60
2022-11-16T22:07:45.885Z,6.10
2022-11-16T22:10:14.660Z,5.93
2022-11-16T22:12:43.225Z,6.00
2022-11-16T22:15:12.351Z,5.80
2022-11-16T22:17:44.111Z,5.85
2022-11-16T22:20:13.147Z,6.05
2022-11-16T22:22:41.705Z,5.90
2022-11-16T22:25:13.925Z,5.70
2022-11-16T22:28:13.498Z,5.47
2022-11-16T22:30:31.911Z,5.90
2022-11-16T22:33:00.419Z,5.95
2022-11-16T22:35:29.013Z,5.70
2022-11-16T22:37:59.449Z,5.60
2022-11-16T22:40:29.381Z,6.07
2022-11-16T22:42:58.660Z,5.57
2022-11-16T22:45:27.403Z,5.35
2022-11-16T22:47:56.757Z,5.50
2022-11-16T22:50:25.266Z,5.55
2022-11-16T22:52:53.753Z,5.72
2022-11-16T22:55:22.243Z,5.25
2022-11-16T22:57:52.182Z,5.82
2022-11-16T23:00:21.349Z,5.15
2022-11-16T23:02:49.999Z,5.28
2022-11-16T23:05:18.566Z,5.20
2022-11-16T23:07:48.350Z,5.43
2022-11-16T23:10:16.911Z,5.28
2022-11-16T23:13:02.732Z,5.38
2022-11-16T23:15:50.851Z,5.30
2022-11-16T23:18:19.907Z,4.78
2022-11-16T23:21:05.907Z,4.80
2022-11-16T23:23:54.449Z,4.55
2022-11-16T23:26:41.886Z,5.28
2022-11-16T23:29:11.153Z,4.82
2022-11-16T23:31:40.953Z,4.90
2022-11-16T23:34:09.542Z,4.75
2022-11-16T23:36:37.983Z,4.90
2022-11-16T23:39:06.737Z,4.65
2022-11-16T23:41:52.905Z,4.60
2022-11-16T23:44:22.310Z,4.63
2022-11-16T23:46:52.126Z,4.10
2022-11-16T23:49:20.660Z,4.55
2022-11-16T23:51:49.149Z,4.47
2022-11-16T23:54:17.633Z,4.55
2022-11-16T23:56:46.209Z,4.35
2022-11-16T23:59:14.767Z,4.35
